Abadan, Iran

2:02 AM IRST on September 24, 2014 (GMT +0330)
Abadan | Change Station
CLOSE
Current Station
Airport
Location: Abadan,
Elevation: 10 ft
Nearby Weather Stations

Elev 10 ft 30.37 °N, 48.25 °E | Updated 32 minutes ago

Clear
Clear
84 °F
Feels Like 84 °F
N
0
Wind Variable Wind from North

Today
High -- | Low -- °F
--% Chance of Precip.
Yesterday
High -- | Low -- °F
Precip. -- in
6:06 AM 6:11 PM
Waning Crescent, 0% visible
Pressure 29.77 in
Visibility -9999.0 miles
Clouds
Heat Index 84 °F
Dew Point 59 °F
Humidity 42%
Rainfall 0.00 in
Snow Depth Not available.
UV Not available.
Pollen Not available.
Air Quality Not available.
Flu Activity Not available.
METAR OIAA 232200Z 00000KT CAVOK 29/15 Q1008

More Conditions Fewer Conditions

Pressure 29.77 in
Visibility -9999.0 miles
Clouds
Heat Index 84 °F
Dew Point 59 °F
Humidity 42%
Rainfall 0.00 in
Snow Depth Not available.
UV Not available.
Pollen Not available.
Air Quality Not available.
Flu Activity Not available.
METAR OIAA 232200Z 00000KT CAVOK 29/15 Q1008

More Conditions Fewer Conditions

10-Day Weather Forecast

Almanac

Astronomy

Sep. 24, 2014 Rise Set
Actual Time 6:06 AM IRST 6:11 PM IRST
Civil Twilight 5:42 AM IRST 6:35 PM IRST
Nautical Twilight 5:14 AM IRST 7:03 PM IRST
Astronomical Twilight 4:46 AM IRST 7:31 PM IRST
Moon 6:03 AM IRST (9/24) 6:13 PM IRST (9/24)
Length of Visible Light 12h 53m
Length of Day
12h 05m
Tomorrow will be 1m 49s shorter.
Waning Crescent, 0% of the Moon is Illuminated
Sep 23
Waning Crescent
Sep 24
New
Oct 1
First Quarter
Oct 8
Full
Oct 15
Last Quarter

Yesterday's Extremes

Country Highs Country Lows

Community

WunderPhotos

Upload Photos

1,755,810 photos uploaded!

WunderBlogs® & News

Nearby

Snow Depth

Not available.

Earthquake Activity

City Distance Mag. Time & Date
No recent earthquake activity has been reported nearby.
Minimum magnitude displayed is 2.5.

Coastal Water Temperatures

Place Temperature
No Stations Reporting

Nearby Weather Stations